Terminal Aerodrome Forecast
Issued by NWS Albuquerque, NM

Home | Current Version | Previous Version | Text Only | Print | Product List | Glossary On
Versions: 1 2 3 4 5 6 7 8 9 10 11 12
000
FTUS45 KABQ 311100
TAFABQ
TAF
KABQ 311126Z 3112/0112 09015KT P6SM SCT250
     FM311700 14010KT P6SM SCT200
     FM312100 17011KT P6SM SCT150
     FM010100 12010KT P6SM SCT060 SCT150
     FM010600 09007KT P6SM SCT060 BKN100=

USA.gov is the U.S. government's official web portal to all federal, state and local government web resources and services.